Time;durP1;ratioP1;P1;durP2;ratioP2;P2;SDS_P1;SDS_P2;PMS_P1;PMS_P2;Temp;Humidity;BMP_temperature;BMP_pressure;BME280_temperature;BME280_humidity;BME280_pressure;Samples;Min_cycle;Max_cycle;Signal;HPM_P1;HPM_P2
2022/03/04 00:01:56;;;;;;;17.50;9.77;;;;;;;-0.09;65.67;99801.53;4972581;28;20122;-72
2022/03/04 00:04:22;;;;;;;15.25;9.45;;;;;;;-0.06;64.78;99800.66;4969360;28;20477;-73
2022/03/04 00:06:47;;;;;;;13.27;9.07;;;;;;;-0.06;64.35;99798.91;4966589;28;20039;-74
2022/03/04 00:09:13;;;;;;;14.68;9.75;;;;;;;-0.04;64.63;99791.16;4962494;28;20138;-74
2022/03/04 00:11:38;;;;;;;16.85;11.18;;;;;;;-0.03;65.25;99803.22;4961505;28;20121;-73
2022/03/04 00:14:04;;;;;;;14.65;9.82;;;;;;;0.00;65.01;99795.44;4962177;28;20043;-73
2022/03/04 00:16:29;;;;;;;16.70;10.52;;;;;;;-0.05;65.43;99804.94;4962842;28;20563;-74
2022/03/04 00:19:08;;;;;;;18.60;10.82;;;;;;;-0.08;65.25;99803.25;4963756;28;20478;-74
2022/03/04 00:21:37;;;;;;;18.40;11.45;;;;;;;-0.05;65.06;99808.44;4963669;28;20034;-73
2022/03/04 00:24:05;;;;;;;22.42;11.52;;;;;;;-0.20;66.26;99805.03;4962380;28;20058;-73
2022/03/04 00:26:30;;;;;;;17.80;12.02;;;;;;;-0.29;66.21;99799.06;4962442;28;20114;-75
2022/03/04 00:28:56;;;;;;;14.32;9.38;;;;;;;-0.30;65.98;99796.47;4962056;28;20542;-72
2022/03/04 00:31:22;;;;;;;16.73;11.57;;;;;;;-0.28;65.46;99794.72;4961035;28;20055;-74
2022/03/04 00:33:47;;;;;;;14.50;9.18;;;;;;;-0.38;65.92;99800.81;4962610;28;20048;-73
2022/03/04 00:36:12;;;;;;;15.70;10.85;;;;;;;-0.41;66.24;99804.28;4962576;28;20438;-72
2022/03/04 00:38:38;;;;;;;18.15;10.93;;;;;;;-0.47;66.02;99804.31;4962427;28;20541;-73
2022/03/04 00:41:03;;;;;;;15.05;9.75;;;;;;;-0.49;66.64;99804.31;4961443;28;20047;-73
2022/03/04 00:43:28;;;;;;;15.85;11.13;;;;;;;-0.51;66.86;99806.06;4962209;28;20098;-73
2022/03/04 00:45:54;;;;;;;21.45;12.48;;;;;;;-0.55;66.48;99804.34;4961855;28;20046;-73
2022/03/04 00:48:19;;;;;;;17.42;10.98;;;;;;;-0.55;66.59;99806.94;4962423;28;20038;-72
2022/03/04 00:50:44;;;;;;;16.50;10.05;;;;;;;-0.55;66.42;99801.75;4968989;28;20054;-73
2022/03/04 00:53:10;;;;;;;17.65;10.98;;;;;;;-0.53;65.75;99805.19;4963468;28;20615;-73
2022/03/04 00:55:37;;;;;;;19.50;12.32;;;;;;;-0.52;65.63;99799.13;4966624;28;20114;-73
2022/03/04 00:58:07;;;;;;;19.33;12.65;;;;;;;-0.59;66.11;99804.34;4962660;28;20037;-72
2022/03/04 01:00:34;;;;;;;19.33;11.70;;;;;;;-0.60;66.58;99803.50;4960788;28;20118;-71
2022/03/04 01:03:01;;;;;;;16.63;10.50;;;;;;;-0.60;66.81;99815.59;4969184;28;20045;-73
2022/03/04 01:05:26;;;;;;;15.57;10.55;;;;;;;-0.58;66.41;99819.03;4962821;28;20039;-72
2022/03/04 01:07:51;;;;;;;15.25;11.35;;;;;;;-0.56;66.41;99817.31;4961663;28;20035;-73
2022/03/04 01:10:17;;;;;;;17.65;12.18;;;;;;;-0.57;67.10;99818.16;4969349;28;20067;-74
2022/03/04 01:12:42;;;;;;;18.08;12.38;;;;;;;-0.61;67.27;99819.06;4961198;28;20050;-73
2022/03/04 01:15:09;;;;;;;13.52;9.73;;;;;;;-0.62;67.35;99817.31;4961461;28;20090;-72
2022/03/04 01:17:34;;;;;;;15.32;11.18;;;;;;;-0.65;67.45;99808.69;4961246;28;20118;-73
2022/03/04 01:20:00;;;;;;;19.73;11.90;;;;;;;-0.68;67.62;99816.47;4964362;28;20035;-74
2022/03/04 01:22:25;;;;;;;18.35;11.95;;;;;;;-0.73;67.54;99813.03;4960113;28;20045;-74
2022/03/04 01:24:52;;;;;;;16.50;10.27;;;;;;;-0.74;67.94;99818.22;4965488;28;20039;-74
2022/03/04 01:27:18;;;;;;;21.90;12.43;;;;;;;-0.78;67.79;99814.78;4964641;28;20050;-73
2022/03/04 01:29:43;;;;;;;17.35;11.43;;;;;;;-0.79;68.02;99819.94;4960713;28;20047;-72
2022/03/04 01:32:08;;;;;;;19.45;10.82;;;;;;;-0.78;67.59;99813.94;4960561;28;20491;-73
2022/03/04 01:34:33;;;;;;;17.90;10.30;;;;;;;-0.79;67.90;99820.81;4960465;28;20134;-74
2022/03/04 01:36:59;;;;;;;20.30;12.30;;;;;;;-0.77;67.59;99806.13;4960854;28;20457;-73
2022/03/04 01:39:24;;;;;;;17.75;9.48;;;;;;;-0.79;67.53;99804.41;4961025;28;20552;-73
2022/03/04 01:41:49;;;;;;;16.33;10.55;;;;;;;-0.74;66.91;99806.16;4968151;28;20035;-73
2022/03/04 01:44:15;;;;;;;14.48;9.45;;;;;;;-0.77;66.80;99803.56;4960585;28;20031;-72
2022/03/04 01:46:40;;;;;;;18.95;11.52;;;;;;;-0.79;67.22;99802.69;4961664;28;20034;-72
2022/03/04 01:49:06;;;;;;;18.88;12.07;;;;;;;-0.83;67.17;99795.81;4965890;28;20026;-72
2022/03/04 01:51:31;;;;;;;18.85;12.32;;;;;;;-0.84;67.04;99799.25;4970928;28;20380;-74
2022/03/04 01:53:56;;;;;;;17.30;11.40;;;;;;;-0.86;67.43;99798.41;4968528;28;20039;-72
2022/03/04 01:56:24;;;;;;;20.40;11.57;;;;;;;-0.85;66.98;99799.28;4967762;28;20038;-72
2022/03/04 01:58:50;;;;;;;17.10;9.88;;;;;;;-0.81;66.18;99799.28;4958705;28;20085;-71
2022/03/04 02:01:15;;;;;;;17.67;10.77;;;;;;;-0.79;66.50;99800.09;4924010;28;20043;-72
2022/03/04 02:03:41;;;;;;;17.98;11.43;;;;;;;-0.82;66.39;99799.25;4957823;28;20498;-71
2022/03/04 02:06:07;;;;;;;17.70;10.52;;;;;;;-0.89;67.14;99796.69;4960216;28;20059;-72
2022/03/04 02:08:32;;;;;;;20.80;11.15;;;;;;;-0.95;67.50;99796.69;4962005;28;20057;-73
2022/03/04 02:10:58;;;;;;;16.95;10.95;;;;;;;-1.06;68.35;99802.75;4961736;28;20108;-72
2022/03/04 02:13:23;;;;;;;18.27;11.07;;;;;;;-1.14;68.76;99797.59;4960349;28;20031;-72
2022/03/04 02:15:48;;;;;;;18.88;11.52;;;;;;;-1.16;68.16;99792.41;4960202;28;20031;-72
2022/03/04 02:18:16;;;;;;;17.65;11.43;;;;;;;-1.12;68.04;99790.72;4960226;28;20050;-71
2022/03/04 02:20:45;;;;;;;18.08;9.82;;;;;;;-1.10;67.97;99800.19;4962232;28;20121;-72
2022/03/04 02:23:12;;;;;;;16.85;9.98;;;;;;;-1.06;67.17;99798.44;4944914;28;20494;-72
2022/03/04 02:25:39;;;;;;;18.00;10.80;;;;;;;-1.04;67.09;99796.72;4960591;28;20034;-73
2022/03/04 02:28:04;;;;;;;19.10;10.57;;;;;;;-1.08;67.93;99792.44;4963179;28;20042;-73
2022/03/04 02:30:30;;;;;;;14.63;9.75;;;;;;;-1.07;67.82;99796.72;4970604;28;20035;-73
2022/03/04 02:32:55;;;;;;;15.77;11.13;;;;;;;-1.11;67.65;99800.19;4969929;28;20046;-73
2022/03/04 02:35:21;;;;;;;16.10;11.13;;;;;;;-1.14;67.60;99795.00;4970575;28;20046;-73
2022/03/04 02:37:46;;;;;;;17.88;11.02;;;;;;;-1.23;68.04;99795.03;4970509;28;20121;-73
2022/03/04 02:40:14;;;;;;;20.55;11.63;;;;;;;-1.34;68.46;99795.91;4970593;28;20509;-73
2022/03/04 02:42:39;;;;;;;17.67;11.13;;;;;;;-1.40;68.89;99795.06;4970721;28;20046;-74
2022/03/04 02:45:05;;;;;;;18.42;11.60;;;;;;;-1.38;69.27;99798.47;4971071;28;20039;-74
2022/03/04 02:47:30;;;;;;;21.00;10.90;;;;;;;-1.39;69.72;99797.63;4954399;28;20046;-72
2022/03/04 02:49:56;;;;;;;16.25;10.65;;;;;;;-1.42;69.61;99787.28;4954818;28;20102;-74
2022/03/04 02:52:21;;;;;;;17.05;10.63;;;;;;;-1.44;68.95;99788.16;4958576;28;20043;-72
2022/03/04 02:54:46;;;;;;;17.35;9.40;;;;;;;-1.48;69.85;99783.84;4962038;28;20113;-73
2022/03/04 02:57:12;;;;;;;15.98;10.70;;;;;;;-1.51;69.19;99782.97;4970169;28;20039;-73
2022/03/04 02:59:37;;;;;;;19.60;10.05;;;;;;;-1.48;69.67;99784.69;4970473;28;20038;-72
2022/03/04 03:02:03;;;;;;;14.90;8.80;;;;;;;-1.46;68.98;99784.72;4972703;28;20039;-73
2022/03/04 03:04:28;;;;;;;15.43;8.90;;;;;;;-1.42;68.44;99792.47;4968872;28;20039;-73
2022/03/04 03:06:53;;;;;;;13.77;9.45;;;;;;;-1.40;68.68;99797.66;4970274;28;20043;-73
2022/03/04 03:09:19;;;;;;;14.70;9.07;;;;;;;-1.40;68.16;99787.31;4972304;28;20062;-72
2022/03/04 03:11:44;;;;;;;19.83;10.55;;;;;;;-1.42;68.27;99796.78;4970468;28;20070;-73
2022/03/04 03:14:10;;;;;;;16.00;11.82;;;;;;;-1.49;68.81;99792.47;4972789;28;20034;-73
2022/03/04 03:16:35;;;;;;;14.35;9.60;;;;;;;-1.55;69.55;99793.31;4974865;28;20049;-73
2022/03/04 03:19:00;;;;;;;18.08;10.48;;;;;;;-1.60;69.90;99789.88;4975887;28;20042;-74
2022/03/04 03:21:26;;;;;;;15.73;9.95;;;;;;;-1.62;69.85;99791.63;4976020;28;20042;-73
2022/03/04 03:23:51;;;;;;;14.32;8.32;;;;;;;-1.61;69.94;99796.78;4975141;28;20042;-75
2022/03/04 03:26:17;;;;;;;13.25;8.95;;;;;;;-1.57;68.91;99805.41;4973770;28;20094;-74
2022/03/04 03:28:42;;;;;;;14.27;8.27;;;;;;;-1.54;68.98;99790.75;4973774;28;20439;-74
2022/03/04 03:31:08;;;;;;;15.27;9.70;;;;;;;-1.56;68.75;99795.03;4972831;28;20466;-75
2022/03/04 03:33:36;;;;;;;14.70;9.00;;;;;;;-1.56;68.32;99792.47;4973327;28;20049;-73
2022/03/04 03:36:01;;;;;;;17.63;10.15;;;;;;;-1.54;68.84;99790.75;4973901;28;20034;-73
2022/03/04 03:38:27;;;;;;;18.50;10.95;;;;;;;-1.58;69.57;99794.19;4973710;28;20043;-74
2022/03/04 03:40:52;;;;;;;16.90;10.93;;;;;;;-1.61;69.10;99785.56;4973632;28;20442;-74
2022/03/04 03:43:18;;;;;;;13.93;9.52;;;;;;;-1.63;69.22;99793.31;4973460;28;20038;-73
2022/03/04 03:45:43;;;;;;;15.23;10.15;;;;;;;-1.67;69.62;99798.47;4973516;28;20490;-74
2022/03/04 03:48:10;;;;;;;17.75;9.23;;;;;;;-1.69;69.42;99808.84;4974064;28;20051;-75
2022/03/04 03:50:38;;;;;;;13.90;9.05;;;;;;;-1.70;69.80;99803.66;4974485;28;20046;-73
2022/03/04 03:53:04;;;;;;;14.95;9.27;;;;;;;-1.72;69.42;99806.25;4974150;28;20030;-75
2022/03/04 03:55:30;;;;;;;13.80;9.63;;;;;;;-1.75;69.39;99807.13;4974951;28;20035;-74
2022/03/04 03:57:55;;;;;;;13.63;7.35;;;;;;;-1.77;69.54;99807.97;4975552;28;20070;-72
2022/03/04 04:00:20;;;;;;;15.63;8.90;;;;;;;-1.77;69.38;99802.81;4974395;28;20043;-73
2022/03/04 04:02:45;;;;;;;19.13;9.77;;;;;;;-1.80;69.65;99811.38;4971886;28;20035;-74
2022/03/04 04:05:14;;;;;;;15.70;10.32;;;;;;;-1.82;69.60;99814.84;4973235;28;20035;-74
2022/03/04 04:07:39;;;;;;;19.20;9.05;;;;;;;-1.85;69.77;99818.28;4973094;28;20036;-73
2022/03/04 04:10:05;;;;;;;19.80;10.48;;;;;;;-1.90;70.42;99821.72;4972626;28;20174;-74
2022/03/04 04:12:30;;;;;;;17.00;11.25;;;;;;;-1.96;69.67;99820.84;4971955;28;20045;-73
2022/03/04 04:14:56;;;;;;;16.10;10.38;;;;;;;-1.99;69.93;99818.28;4973167;28;20042;-74
2022/03/04 04:17:22;;;;;;;13.15;8.30;;;;;;;-2.00;70.26;99826.88;4969700;28;20035;-73
2022/03/04 04:19:47;;;;;;;13.68;9.77;;;;;;;-1.99;69.50;99832.91;4955120;28;20043;-74
2022/03/04 04:22:13;;;;;;;15.43;10.13;;;;;;;-1.98;69.22;99832.03;4971508;28;20173;-74
2022/03/04 04:24:38;;;;;;;19.33;11.93;;;;;;;-1.98;69.37;99827.72;4972514;28;20486;-73
2022/03/04 04:27:04;;;;;;;13.18;9.23;;;;;;;-1.96;69.36;99828.59;4972964;28;20807;-75
2022/03/04 04:29:29;;;;;;;16.90;10.88;;;;;;;-1.97;69.47;99829.47;4972883;28;20491;-74
2022/03/04 04:31:54;;;;;;;17.50;10.10;;;;;;;-1.99;69.10;99826.03;4971800;28;20042;-73
2022/03/04 04:34:20;;;;;;;12.65;8.20;;;;;;;-1.95;69.08;99824.28;4972438;28;20035;-73
2022/03/04 04:36:45;;;;;;;12.63;8.07;;;;;;;-1.92;68.82;99832.03;4957577;28;20038;-73
2022/03/04 04:39:10;;;;;;;13.13;8.23;;;;;;;-1.91;69.40;99822.59;4980707;28;20442;-73
2022/03/04 04:41:36;;;;;;;13.63;9.20;;;;;;;-1.94;69.63;99831.22;4954912;28;20042;-73
2022/03/04 04:44:01;;;;;;;15.30;9.25;;;;;;;-2.02;69.96;99827.72;4972655;28;20380;-74
2022/03/04 04:46:26;;;;;;;15.02;9.55;;;;;;;-2.10;70.15;99824.28;4972660;28;20129;-75
2022/03/04 04:48:52;;;;;;;17.88;10.05;;;;;;;-2.13;70.29;99824.28;4954451;28;20090;-74
2022/03/04 04:51:17;;;;;;;20.15;11.95;;;;;;;-2.14;70.93;99826.00;4954245;28;20191;-74
2022/03/04 04:53:43;;;;;;;13.07;8.95;;;;;;;-2.09;70.64;99842.38;4955033;28;20034;-74
2022/03/04 04:56:09;;;;;;;12.85;8.07;;;;;;;-2.08;70.40;99841.50;4972120;28;20556;-74
2022/03/04 04:58:35;;;;;;;14.95;9.57;;;;;;;-2.07;70.54;99845.78;4972076;28;20043;-74
2022/03/04 05:01:00;;;;;;;15.65;9.55;;;;;;;-2.04;69.94;99847.53;4971025;28;20031;-72
2022/03/04 05:03:26;;;;;;;16.80;10.15;;;;;;;-2.01;69.72;99848.41;4972589;28;20034;-72
2022/03/04 05:05:53;;;;;;;13.55;9.23;;;;;;;-2.01;69.66;99845.81;4971907;28;20423;-72
2022/03/04 05:08:19;;;;;;;14.55;9.75;;;;;;;-1.98;69.85;99850.13;4969047;28;20035;-73
2022/03/04 05:10:45;;;;;;;19.30;9.40;;;;;;;-2.01;69.64;99845.81;4971775;28;20090;-73
2022/03/04 05:13:11;;;;;;;17.42;10.27;;;;;;;-2.03;70.27;99837.19;4971473;28;20780;-73
2022/03/04 05:15:37;;;;;;;19.27;10.60;;;;;;;-2.04;70.29;99847.53;4972081;28;20038;-73
2022/03/04 05:18:03;;;;;;;16.42;9.90;;;;;;;-2.12;69.98;99838.88;4971650;28;20541;-73
2022/03/04 05:20:28;;;;;;;21.80;11.13;;;;;;;-2.15;69.96;99844.91;4971831;28;20054;-73
2022/03/04 05:22:53;;;;;;;12.80;8.82;;;;;;;-2.16;71.06;99845.78;4971788;28;20065;-73
2022/03/04 05:25:19;;;;;;;14.32;9.55;;;;;;;-2.05;69.80;99848.38;4971666;28;20061;-73
2022/03/04 05:27:45;;;;;;;15.68;8.20;;;;;;;-1.99;69.15;99849.28;4955178;28;20053;-72
2022/03/04 05:30:11;;;;;;;16.23;9.38;;;;;;;-1.99;69.41;99858.75;4972438;28;20055;-74
2022/03/04 05:32:37;;;;;;;13.95;9.10;;;;;;;-1.98;69.52;99853.56;4953533;28;20051;-74
2022/03/04 05:35:03;;;;;;;16.15;10.85;;;;;;;-1.98;69.80;99857.88;4972813;28;20034;-74
2022/03/04 05:37:29;;;;;;;16.58;10.05;;;;;;;-2.05;69.88;99858.72;4972540;28;20138;-74
2022/03/04 05:39:54;;;;;;;17.98;10.50;;;;;;;-2.14;70.33;99856.97;4973792;28;20117;-74
2022/03/04 05:42:20;;;;;;;15.48;9.70;;;;;;;-2.10;70.59;99863.88;4972648;28;20506;-73
2022/03/04 05:44:46;;;;;;;17.58;11.15;;;;;;;-2.11;70.35;99858.72;4973068;28;20468;-74
2022/03/04 05:47:11;;;;;;;14.88;9.57;;;;;;;-2.12;70.51;99863.00;4981448;28;20148;-74
2022/03/04 05:49:37;;;;;;;18.20;11.15;;;;;;;-2.11;71.16;99862.16;4975839;28;20438;-73
2022/03/04 05:52:04;;;;;;;22.67;10.38;;;;;;;-2.16;70.87;99871.59;4971211;28;20070;-74
2022/03/04 05:54:29;;;;;;;26.38;11.40;;;;;;;-2.21;70.78;99865.56;4972496;28;20043;-74
2022/03/04 05:56:55;;;;;;;19.67;11.60;;;;;;;-2.20;70.40;99869.84;4972518;28;20034;-74
2022/03/04 05:59:21;;;;;;;14.65;10.23;;;;;;;-2.21;71.06;99871.59;4972018;28;20236;-74
2022/03/04 06:01:46;;;;;;;14.88;10.27;;;;;;;-2.18;71.22;99881.06;4971215;28;20563;-74
2022/03/04 06:04:12;;;;;;;14.40;9.80;;;;;;;-2.15;71.21;99878.47;4971431;28;20041;-74
2022/03/04 06:06:37;;;;;;;15.05;10.30;;;;;;;-2.10;70.84;99871.59;4971938;28;20062;-74
2022/03/04 06:09:02;;;;;;;18.50;11.85;;;;;;;-2.07;70.50;99876.78;4966411;28;20027;-75
2022/03/04 06:11:28;;;;;;;20.20;11.65;;;;;;;-2.07;70.96;99875.94;4954546;28;20043;-73
2022/03/04 06:13:53;;;;;;;22.33;12.75;;;;;;;-2.02;70.31;99876.81;4978414;28;20023;-75
2022/03/04 06:16:20;;;;;;;17.92;10.88;;;;;;;-2.03;70.05;99875.09;4974078;28;20039;-76
2022/03/04 06:18:45;;;;;;;21.08;10.63;;;;;;;-2.04;70.72;99883.72;4973571;28;20030;-75
2022/03/04 06:21:11;;;;;;;18.58;11.50;;;;;;;-2.02;70.47;99889.72;4961623;28;20163;-74
2022/03/04 06:23:36;;;;;;;19.77;12.10;;;;;;;-2.01;70.86;99881.97;4974483;28;20070;-75
2022/03/04 06:26:02;;;;;;;18.63;11.55;;;;;;;-1.98;70.43;99889.72;4952477;28;20054;-74
2022/03/04 06:28:28;;;;;;;15.73;10.05;;;;;;;-1.94;69.75;99890.63;4951900;28;20044;-75
2022/03/04 06:30:54;;;;;;;24.00;11.48;;;;;;;-1.90;69.31;99888.91;4951040;28;20054;-74
2022/03/04 06:33:32;;;;;;;18.65;11.27;;;;;;;-1.89;69.38;99896.66;4957754;28;20506;-74
2022/03/04 06:36:13;;;;;;;25.02;12.02;;;;;;;-1.84;69.41;99907.88;4966946;28;20070;-74
2022/03/04 06:38:42;;;;;;;18.23;11.98;;;;;;;-1.81;70.08;99907.03;4989587;28;20033;-73
2022/03/04 06:41:09;;;;;;;18.45;10.25;;;;;;;-1.78;69.97;99905.28;4988865;28;20061;-73
2022/03/04 06:43:34;;;;;;;26.95;11.85;;;;;;;-1.72;69.67;99904.47;4980464;28;20486;-73
2022/03/04 06:46:01;;;;;;;17.20;11.13;;;;;;;-1.69;69.88;99908.78;4979791;28;20124;-74
2022/03/04 06:48:27;;;;;;;15.50;11.30;;;;;;;-1.64;69.30;99899.31;4983852;28;20347;-72
2022/03/04 06:50:53;;;;;;;32.20;15.13;;;;;;;-1.61;68.99;99896.72;4989722;28;20038;-74
2022/03/04 06:53:20;;;;;;;25.13;14.63;;;;;;;-1.55;68.33;99902.78;4990645;28;20046;-73
2022/03/04 06:55:46;;;;;;;19.50;12.02;;;;;;;-1.49;68.21;99903.66;4998805;28;20397;-74
2022/03/04 06:58:12;;;;;;;26.13;15.75;;;;;;;-1.41;68.00;99901.91;4994498;28;20034;-74
2022/03/04 07:00:39;;;;;;;24.70;11.77;;;;;;;-1.09;67.55;99905.38;4990725;28;20042;-71
2022/03/04 07:03:04;;;;;;;23.70;12.13;;;;;;;-0.68;66.61;99901.91;4983828;28;20121;-73
2022/03/04 07:05:30;;;;;;;19.73;12.07;;;;;;;-0.46;65.89;99905.31;4983687;28;20118;-75
2022/03/04 07:07:56;;;;;;;30.33;14.45;;;;;;;-0.25;64.85;99913.88;4973050;28;20470;-74
2022/03/04 07:10:22;;;;;;;19.10;11.63;;;;;;;-0.14;65.19;99913.84;4989379;28;20042;-75
2022/03/04 07:12:47;;;;;;;18.00;11.77;;;;;;;-0.14;64.40;99919.03;4987137;28;20042;-73
2022/03/04 07:15:13;;;;;;;20.52;11.93;;;;;;;-0.14;65.09;99926.81;4968376;28;20034;-73
2022/03/04 07:17:39;;;;;;;20.88;12.32;;;;;;;-0.17;65.11;99925.09;4969887;28;20042;-73
2022/03/04 07:20:07;;;;;;;20.60;11.98;;;;;;;-0.16;65.07;99923.34;4970107;28;20042;-73
2022/03/04 07:22:34;;;;;;;20.17;11.55;;;;;;;-0.13;65.04;99919.00;4971720;28;20038;-74
2022/03/04 07:24:59;;;;;;;22.55;14.30;;;;;;;-0.10;65.63;99924.19;4977100;28;20065;-74
2022/03/04 07:27:24;;;;;;;24.80;13.68;;;;;;;-0.08;65.99;99931.94;4971898;28;20031;-75
2022/03/04 07:29:50;;;;;;;87.38;44.13;;;;;;;0.00;65.83;99930.22;4973694;28;20045;-75
2022/03/04 07:32:15;;;;;;;27.67;16.17;;;;;;;0.09;65.23;99930.16;4969904;28;20048;-74
2022/03/04 07:34:41;;;;;;;26.05;13.50;;;;;;;0.17;65.11;99931.00;4969896;28;20046;-75
2022/03/04 07:37:06;;;;;;;22.42;13.13;;;;;;;0.29;65.19;99930.06;4969749;28;20078;-73
2022/03/04 07:39:32;;;;;;;25.70;12.40;;;;;;;0.41;64.73;99929.13;4969980;28;20039;-73
2022/03/04 07:41:57;;;;;;;20.92;12.38;;;;;;;0.47;64.31;99921.34;4969943;28;20075;-75
2022/03/04 07:44:23;;;;;;;16.63;10.60;;;;;;;0.59;64.36;99922.97;4968958;28;20031;-75
2022/03/04 07:46:49;;;;;;;25.25;12.93;;;;;;;0.69;64.58;99932.44;4970135;28;20043;-75
2022/03/04 07:49:15;;;;;;;27.45;13.00;;;;;;;0.77;63.73;99930.63;4970324;28;20042;-74
2022/03/04 07:51:40;;;;;;;22.58;14.15;;;;;;;0.90;64.22;99927.94;4969487;28;20511;-74
2022/03/04 07:54:06;;;;;;;20.33;12.23;;;;;;;0.97;63.66;99921.84;4969236;28;20137;-74
2022/03/04 07:56:31;;;;;;;18.60;12.80;;;;;;;1.10;63.17;99927.78;4969860;28;20356;-74
2022/03/04 07:58:57;;;;;;;23.98;13.77;;;;;;;1.22;62.92;99927.69;4963643;28;20039;-74
2022/03/04 08:01:22;;;;;;;25.90;13.32;;;;;;;1.33;62.88;99923.25;4955304;28;20516;-75
2022/03/04 08:03:48;;;;;;;18.58;12.02;;;;;;;1.46;63.00;99917.06;4961638;28;20045;-74
2022/03/04 08:06:13;;;;;;;21.27;11.70;;;;;;;1.58;62.76;99930.81;4962260;28;20559;-75
2022/03/04 08:08:39;;;;;;;19.52;12.43;;;;;;;1.70;62.65;99930.69;4965916;28;20081;-74
2022/03/04 08:11:05;;;;;;;26.98;13.55;;;;;;;1.86;62.59;99934.81;4958681;28;20042;-75
2022/03/04 08:13:31;;;;;;;24.27;14.77;;;;;;;1.98;62.21;99930.38;4963166;28;20121;-75
2022/03/04 08:15:57;;;;;;;21.65;13.68;;;;;;;2.12;62.53;99931.06;4962950;28;20067;-73
2022/03/04 08:18:23;;;;;;;21.50;12.75;;;;;;;2.25;61.60;99919.59;4962548;28;20093;-75
2022/03/04 08:20:48;;;;;;;19.55;12.35;;;;;;;2.45;60.84;99918.47;4963110;28;20438;-70
2022/03/04 08:23:13;;;;;;;33.50;15.30;;;;;;;2.57;61.75;99926.13;4960401;28;20043;-70
2022/03/04 08:25:39;;;;;;;25.42;14.10;;;;;;;2.72;61.79;99936.28;4967204;28;20070;-69
2022/03/04 08:28:05;;;;;;;28.10;14.50;;;;;;;2.88;60.23;99934.34;4963834;28;20042;-70
2022/03/04 08:30:31;;;;;;;31.80;15.85;;;;;;;3.07;57.19;99931.44;4961049;28;20101;-69
2022/03/04 08:32:56;;;;;;;24.85;13.43;;;;;;;3.34;55.68;99938.78;4957407;28;20047;-70
2022/03/04 08:35:22;;;;;;;25.08;13.65;;;;;;;3.51;56.98;99933.25;4965289;28;20042;-71
2022/03/04 08:37:47;;;;;;;19.02;12.77;;;;;;;3.70;54.07;99933.78;4968532;28;20134;-71
2022/03/04 08:40:13;;;;;;;30.15;13.13;;;;;;;3.86;53.19;99937.84;4961737;28;20110;-70
2022/03/04 08:42:40;;;;;;;25.83;14.30;;;;;;;4.05;53.62;99935.69;4963298;28;20038;-69
2022/03/04 08:45:06;;;;;;;19.27;11.88;;;;;;;4.26;52.34;99938.78;4970498;28;20610;-69
2022/03/04 08:47:31;;;;;;;18.33;12.02;;;;;;;4.46;51.05;99936.59;4968489;28;20105;-69
2022/03/04 08:49:57;;;;;;;29.30;13.88;;;;;;;4.61;50.36;99934.53;4967824;28;20114;-70
2022/03/04 08:52:22;;;;;;;19.48;12.55;;;;;;;4.82;48.28;99943.63;4961145;28;20122;-69
2022/03/04 08:54:48;;;;;;;23.35;12.43;;;;;;;5.08;48.34;99943.03;4945098;28;20693;-68
2022/03/04 08:57:13;;;;;;;20.13;11.45;;;;;;;5.35;47.55;99946.72;4960659;28;20631;-69
2022/03/04 08:59:39;;;;;;;19.30;11.63;;;;;;;5.53;47.83;99953.22;4959489;28;20070;-68
2022/03/04 09:02:05;;;;;;;23.98;14.70;;;;;;;5.70;47.24;99951.00;4956730;28;20067;-67
2022/03/04 09:04:30;;;;;;;25.40;13.45;;;;;;;6.32;46.54;99949.34;4956810;28;20462;-69
2022/03/04 09:06:56;;;;;;;26.42;13.88;;;;;;;7.73;43.59;99950.09;4953474;28;20063;-70
2022/03/04 09:09:21;;;;;;;32.08;16.55;;;;;;;9.01;40.23;99948.81;4948927;28;20049;-68
2022/03/04 09:11:47;;;;;;;20.60;14.23;;;;;;;10.35;37.76;99951.03;4937503;28;20050;-69
2022/03/04 09:14:12;;;;;;;24.30;15.18;;;;;;;11.33;35.07;99951.63;4965177;28;20031;-68
2022/03/04 09:16:37;;;;;;;24.42;14.07;;;;;;;12.24;33.55;99956.63;4965804;28;20062;-69
2022/03/04 09:19:04;;;;;;;21.15;15.35;;;;;;;12.79;32.08;99946.63;4962248;28;20043;-72
2022/03/04 09:21:29;;;;;;;25.80;16.90;;;;;;;13.22;31.82;99945.03;4963083;28;20031;-72
2022/03/04 09:23:55;;;;;;;20.35;15.25;;;;;;;13.61;30.85;99951.63;4948450;28;20046;-74
2022/03/04 09:26:21;;;;;;;21.20;14.32;;;;;;;14.05;30.09;99947.25;4963160;28;20047;-72
2022/03/04 09:28:47;;;;;;;23.55;13.90;;;;;;;14.44;30.00;99943.06;4948430;28;20130;-72
2022/03/04 09:31:13;;;;;;;20.70;15.05;;;;;;;14.80;29.46;99943.44;4961619;28;20043;-72
2022/03/04 09:33:38;;;;;;;25.13;16.00;;;;;;;15.18;28.83;99941.88;4959596;28;20057;-73
2022/03/04 09:36:04;;;;;;;36.08;25.08;;;;;;;15.80;27.81;99943.97;4956048;28;20085;-73
2022/03/04 09:38:29;;;;;;;22.40;16.23;;;;;;;16.30;28.61;99940.44;4957105;28;20043;-72
2022/03/04 09:40:54;;;;;;;23.40;17.08;;;;;;;16.77;27.46;99935.34;4959572;28;20043;-73
2022/03/04 09:43:22;;;;;;;20.75;14.48;;;;;;;16.37;27.13;99940.88;4954342;28;20039;-72
2022/03/04 09:45:49;;;;;;;24.77;13.80;;;;;;;16.56;27.15;99948.38;4960482;28;20043;-72
2022/03/04 09:48:16;;;;;;;25.25;14.93;;;;;;;16.77;26.40;99942.50;4957992;28;20731;-72
2022/03/04 09:50:47;;;;;;;17.50;13.50;;;;;;;17.04;26.06;99945.84;4957158;28;20039;-73
2022/03/04 09:53:12;;;;;;;24.23;14.75;;;;;;;17.27;25.43;99951.25;4957334;28;20419;-73
2022/03/04 09:55:39;;;;;;;18.52;13.27;;;;;;;17.29;25.28;99939.53;4955880;28;20031;-73
2022/03/04 09:58:16;;;;;;;19.20;14.73;;;;;;;17.27;25.71;99948.59;4957718;28;20039;-73
2022/03/04 10:00:43;;;;;;;21.42;13.10;;;;;;;17.72;25.35;99938.97;4946791;28;20043;-71
2022/03/04 10:03:28;;;;;;;15.95;12.77;;;;;;;18.29;24.18;99936.41;4952137;28;20124;-73
2022/03/04 10:05:55;;;;;;;18.30;12.25;;;;;;;18.44;23.36;99936.03;4956678;28;20035;-73
2022/03/04 10:08:22;;;;;;;17.55;11.35;;;;;;;18.80;22.68;99938.56;4958884;28;20034;-73
2022/03/04 10:10:48;;;;;;;26.77;13.65;;;;;;;18.51;22.91;99930.19;4955249;28;20103;-73
2022/03/04 10:13:14;;;;;;;20.58;14.07;;;;;;;18.11;23.75;99931.50;4959650;28;20600;-73
2022/03/04 10:15:53;;;;;;;16.63;13.52;;;;;;;17.96;24.07;99932.72;4960623;28;20118;-73
2022/03/04 10:18:25;;;;;;;21.70;12.95;;;;;;;17.89;23.86;99934.16;4965059;28;20073;-74
2022/03/04 10:20:50;;;;;;;23.15;13.15;;;;;;;17.71;24.01;99934.56;4953690;28;20034;-72
2022/03/04 10:23:22;;;;;;;25.35;12.70;;;;;;;18.22;23.89;99933.34;4949966;28;20046;-71
2022/03/04 10:25:51;;;;;;;14.38;11.18;;;;;;;18.92;22.85;99929.53;4965775;28;20038;-73
2022/03/04 10:28:17;;;;;;;16.02;11.32;;;;;;;19.70;21.46;99930.22;4951034;28;20039;-72
2022/03/04 10:30:54;;;;;;;12.80;9.98;;;;;;;20.44;20.06;99924.69;4956839;28;20027;-72
2022/03/04 10:33:25;;;;;;;13.88;10.05;;;;;;;20.21;20.60;99926.72;4960307;28;20089;-74
2022/03/04 10:36:10;;;;;;;13.88;11.35;;;;;;;20.13;20.81;99921.16;4966676;28;20038;-73
2022/03/04 10:38:38;;;;;;;19.77;11.48;;;;;;;19.96;20.95;99906.59;4954564;28;20035;-73
2022/03/04 10:41:29;;;;;;;20.38;11.50;;;;;;;20.00;20.65;99910.69;4966945;28;20113;-71
2022/03/04 10:43:56;;;;;;;11.65;9.40;;;;;;;19.78;20.17;99911.69;4962153;28;20050;-72
2022/03/04 10:46:22;;;;;;;10.32;9.02;;;;;;;19.07;21.07;99909.59;4960141;28;20035;-71
2022/03/04 10:48:56;;;;;;;14.05;10.52;;;;;;;18.27;21.31;99907.16;4959197;28;20031;-72
2022/03/04 10:51:38;;;;;;;14.10;11.18;;;;;;;17.11;23.12;99919.59;4958767;28;20039;-73
2022/03/04 10:54:15;;;;;;;16.10;10.70;;;;;;;16.10;24.58;99917.91;4960834;28;20031;-72
2022/03/04 10:56:52;;;;;;;21.25;12.45;;;;;;;15.76;25.30;99915.91;4955794;28;20043;-73
2022/03/04 10:59:19;;;;;;;16.63;11.93;;;;;;;15.24;25.60;99912.28;4962705;28;20035;-73
2022/03/04 11:01:55;;;;;;;19.50;11.38;;;;;;;14.87;26.48;99916.50;4957759;28;20039;-74
2022/03/04 11:04:21;;;;;;;19.45;12.82;;;;;;;14.47;27.01;99909.28;4959256;28;20047;-72
2022/03/04 11:06:48;;;;;;;20.75;13.75;;;;;;;13.87;28.41;99915.59;4959774;28;20034;-71
2022/03/04 11:09:24;;;;;;;23.75;13.35;;;;;;;13.53;28.96;99909.69;4966639;28;20122;-73
2022/03/04 11:11:51;;;;;;;16.63;12.52;;;;;;;12.92;29.87;99915.03;4959739;28;20614;-71
2022/03/04 11:14:17;;;;;;;20.67;14.13;;;;;;;12.77;30.37;99914.09;4962413;28;20035;-72
2022/03/04 11:16:42;;;;;;;20.15;14.70;;;;;;;12.29;31.01;99919.38;4960484;28;20031;-72